Time;durP1;ratioP1;P1;durP2;ratioP2;P2;SDS_P1;SDS_P2;PMS_P1;PMS_P2;Temp;Humidity;BMP_temperature;BMP_pressure;BME280_temperature;BME280_humidity;BME280_pressure;Samples;Min_cycle;Max_cycle;Signal;HPM_P1;HPM_P2
2022/03/16 00:01:16;;;;;;;25.88;11.95;;;-4.10;99.90;;;;;;4993218;28;20027;-74
2022/03/16 00:03:42;;;;;;;25.63;11.15;;;-4.20;99.90;;;;;;4993068;28;20034;-73
2022/03/16 00:06:08;;;;;;;23.60;11.65;;;-4.20;99.90;;;;;;4992789;28;20050;-74
2022/03/16 00:08:34;;;;;;;30.50;12.20;;;-4.20;99.90;;;;;;4992907;28;20026;-74
2022/03/16 00:10:59;;;;;;;24.33;11.43;;;-4.20;99.90;;;;;;4992979;28;20023;-74
2022/03/16 00:13:25;;;;;;;21.63;12.23;;;-4.20;99.90;;;;;;4992662;28;20565;-74
2022/03/16 00:15:51;;;;;;;22.13;11.77;;;-4.30;99.90;;;;;;4991496;28;20019;-74
2022/03/16 00:18:19;;;;;;;29.40;12.60;;;-4.30;99.90;;;;;;4992594;28;20034;-74
2022/03/16 00:20:47;;;;;;;73.55;12.10;;;-4.30;99.90;;;;;;4992861;28;20354;-74
2022/03/16 00:23:13;;;;;;;34.45;12.15;;;-4.30;99.90;;;;;;4992609;28;20026;-73
2022/03/16 00:25:39;;;;;;;39.75;12.75;;;-4.40;99.90;;;;;;4992576;28;20114;-73
2022/03/16 00:28:04;;;;;;;35.45;11.82;;;-4.50;99.90;;;;;;4992361;28;20116;-74
2022/03/16 00:30:30;;;;;;;30.00;11.82;;;-4.50;99.90;;;;;;4992689;28;20023;-74
2022/03/16 00:32:56;;;;;;;25.15;12.35;;;-4.50;99.90;;;;;;4992663;28;20436;-74
2022/03/16 00:35:22;;;;;;;39.58;12.60;;;-4.50;99.90;;;;;;4992530;28;20025;-74
2022/03/16 00:37:47;;;;;;;29.17;12.43;;;-4.40;99.90;;;;;;4992266;28;20086;-74
2022/03/16 00:40:13;;;;;;;31.35;11.93;;;-4.40;99.90;;;;;;4992280;28;20019;-74
2022/03/16 00:42:39;;;;;;;43.95;13.65;;;-4.40;99.90;;;;;;4992362;28;20445;-74
2022/03/16 00:45:06;;;;;;;30.00;12.02;;;-4.30;99.90;;;;;;4992446;28;20108;-73
2022/03/16 00:47:31;;;;;;;35.13;12.55;;;-4.30;99.90;;;;;;4992335;28;20033;-74
2022/03/16 00:49:57;;;;;;;26.67;12.18;;;-4.30;99.90;;;;;;4992327;28;20382;-73
2022/03/16 00:52:23;;;;;;;36.33;13.32;;;-4.30;99.90;;;;;;4991955;28;20035;-74
2022/03/16 00:54:49;;;;;;;30.42;12.38;;;-4.20;99.90;;;;;;4992457;28;20030;-73
2022/03/16 00:57:14;;;;;;;31.40;12.30;;;-4.30;99.90;;;;;;4992382;28;20438;-73
2022/03/16 00:59:40;;;;;;;34.17;12.05;;;-4.30;99.90;;;;;;4992248;28;20109;-73
2022/03/16 01:02:06;;;;;;;22.40;11.45;;;-4.40;99.90;;;;;;4992076;28;20034;-73
2022/03/16 01:04:32;;;;;;;28.50;12.23;;;-4.40;99.90;;;;;;4992552;28;20390;-73
2022/03/16 01:06:57;;;;;;;33.55;12.68;;;-4.50;99.90;;;;;;4992196;28;20057;-73
2022/03/16 01:09:23;;;;;;;26.25;12.23;;;-4.50;99.90;;;;;;4993988;28;20030;-73
2022/03/16 01:11:49;;;;;;;28.08;11.90;;;-4.50;99.90;;;;;;4995995;28;20031;-73
2022/03/16 01:14:16;;;;;;;26.10;11.57;;;-4.60;99.90;;;;;;4995966;28;20398;-71
2022/03/16 01:16:41;;;;;;;28.10;12.82;;;-4.60;99.90;;;;;;4996023;28;20474;-72
2022/03/16 01:19:07;;;;;;;27.02;13.00;;;-4.60;99.90;;;;;;4996061;28;20076;-72
2022/03/16 01:21:34;;;;;;;28.80;12.77;;;-4.60;99.90;;;;;;4996246;28;20021;-72
2022/03/16 01:23:59;;;;;;;26.52;12.57;;;-4.60;99.90;;;;;;4996078;28;20390;-73
2022/03/16 01:26:26;;;;;;;28.98;13.13;;;-4.60;99.90;;;;;;4995988;28;20054;-73
2022/03/16 01:28:52;;;;;;;26.75;12.75;;;-4.60;99.90;;;;;;4996067;28;20030;-73
2022/03/16 01:31:22;;;;;;;30.08;13.88;;;-4.60;99.90;;;;;;4995919;28;20050;-73
2022/03/16 01:33:48;;;;;;;29.88;14.63;;;-4.60;99.90;;;;;;4995617;28;20030;-73
2022/03/16 01:36:13;;;;;;;28.60;14.15;;;-4.60;99.90;;;;;;4995395;28;20037;-73
2022/03/16 01:38:39;;;;;;;28.58;13.82;;;-4.60;99.90;;;;;;4995489;28;20057;-73
2022/03/16 01:41:05;;;;;;;27.55;14.10;;;-4.60;99.90;;;;;;4995738;28;20023;-73
2022/03/16 01:43:30;;;;;;;28.58;14.73;;;-4.60;99.90;;;;;;4995731;28;20039;-73
2022/03/16 01:45:56;;;;;;;38.42;17.65;;;-4.50;99.90;;;;;;4995419;28;20601;-73
2022/03/16 01:48:22;;;;;;;35.83;17.70;;;-4.50;99.90;;;;;;4995246;28;20038;-73
2022/03/16 01:50:48;;;;;;;43.03;19.30;;;-4.40;99.90;;;;;;4995352;28;20101;-73
2022/03/16 01:53:15;;;;;;;44.53;20.20;;;-4.30;99.90;;;;;;4995206;28;20039;-73
2022/03/16 01:55:42;;;;;;;46.42;21.17;;;-4.20;99.90;;;;;;4995566;28;20450;-73
2022/03/16 01:58:09;;;;;;;58.00;23.00;;;-4.10;99.90;;;;;;4995048;28;20060;-73
2022/03/16 02:00:35;;;;;;;58.30;23.42;;;-4.00;99.90;;;;;;4995275;28;20081;-73
2022/03/16 02:03:01;;;;;;;62.15;25.83;;;-3.90;99.90;;;;;;4995408;28;20061;-73
2022/03/16 02:05:28;;;;;;;61.33;26.17;;;-3.80;99.90;;;;;;4995054;28;20054;-73
2022/03/16 02:07:54;;;;;;;70.35;24.25;;;-3.60;99.90;;;;;;4995108;28;20038;-73
2022/03/16 02:10:22;;;;;;;64.80;26.88;;;-3.60;99.90;;;;;;4995074;28;20089;-72
2022/03/16 02:12:51;;;;;;;55.90;25.48;;;-3.50;99.90;;;;;;4994873;28;20547;-73
2022/03/16 02:15:18;;;;;;;95.17;27.17;;;-3.40;99.90;;;;;;4994877;28;20539;-73
2022/03/16 02:17:45;;;;;;;78.28;24.50;;;-3.30;99.90;;;;;;4995117;28;20026;-73
2022/03/16 02:20:11;;;;;;;57.28;24.27;;;-3.30;99.90;;;;;;4994883;28;20058;-73
2022/03/16 02:22:51;;;;;;;60.97;27.50;;;-3.20;99.90;;;;;;4994816;28;20080;-73
2022/03/16 02:56:47;;;;;;;71.65;29.50;;;-2.50;99.90;;;;;;4983241;28;20046;-73
2022/03/16 02:59:13;;;;;;;55.60;26.73;;;-2.50;99.90;;;;;;4994285;28;20068;-73
2022/03/16 03:01:39;;;;;;;77.32;29.23;;;-2.40;99.90;;;;;;4994114;28;20054;-73
2022/03/16 03:37:44;;;;;;;66.07;28.85;;;-1.90;99.90;;;;;;5825166;22;20123;-71
2022/03/16 03:40:10;;;;;;;64.07;28.48;;;-1.80;99.90;;;;;;5012775;28;20501;-71
2022/03/16 03:42:36;;;;;;;61.53;28.20;;;-1.80;99.90;;;;;;5013124;28;20026;-70
2022/03/16 03:45:03;;;;;;;63.97;28.75;;;-1.80;99.90;;;;;;5012975;28;20388;-70
2022/03/16 03:47:28;;;;;;;63.38;28.98;;;-1.80;99.90;;;;;;5012652;28;20037;-70
2022/03/16 03:49:54;;;;;;;61.00;29.00;;;-1.70;99.90;;;;;;5012867;28;20026;-70
2022/03/16 03:52:20;;;;;;;62.60;28.63;;;-1.70;99.90;;;;;;5012544;28;20551;-71
2022/03/16 03:54:45;;;;;;;59.90;27.48;;;-1.60;99.90;;;;;;5012826;28;20064;-71
2022/03/16 03:57:11;;;;;;;65.45;29.00;;;-1.60;99.90;;;;;;5012624;28;20358;-72
2022/03/16 03:59:37;;;;;;;62.83;27.98;;;-1.60;99.90;;;;;;4997053;28;20114;-71
2022/03/16 04:02:03;;;;;;;67.20;27.38;;;-1.60;99.90;;;;;;4993020;28;20027;-71
2022/03/16 04:04:28;;;;;;;77.25;27.70;;;-1.60;99.90;;;;;;4993088;28;20505;-71
2022/03/16 04:06:54;;;;;;;75.45;27.45;;;-1.60;99.90;;;;;;4992743;28;20436;-73
2022/03/16 04:09:20;;;;;;;65.03;27.00;;;-1.60;99.90;;;;;;4991895;28;20022;-72
2022/03/16 04:11:46;;;;;;;64.43;28.25;;;-1.60;99.90;;;;;;4993011;28;20026;-72
2022/03/16 04:14:12;;;;;;;57.83;27.27;;;-1.60;99.90;;;;;;4992994;28;20473;-72
2022/03/16 04:16:38;;;;;;;65.18;27.90;;;-1.60;99.90;;;;;;4992808;28;20026;-71
2022/03/16 04:19:04;;;;;;;66.75;28.88;;;-1.60;99.90;;;;;;4992901;28;20125;-71
2022/03/16 04:21:30;;;;;;;61.28;27.55;;;-1.50;99.90;;;;;;4993054;28;20045;-71
2022/03/16 04:23:55;;;;;;;60.45;25.92;;;-1.50;99.90;;;;;;4992806;28;20440;-71
2022/03/16 04:26:21;;;;;;;58.53;26.50;;;-1.50;99.90;;;;;;4992987;28;20114;-71
2022/03/16 04:28:47;;;;;;;57.83;26.45;;;-1.50;99.90;;;;;;4992603;28;20508;-71
2022/03/16 04:31:13;;;;;;;58.45;27.23;;;-1.50;99.90;;;;;;4992919;28;20031;-71
2022/03/16 04:33:39;;;;;;;56.50;26.10;;;-1.50;99.90;;;;;;4992505;28;20031;-71
2022/03/16 04:36:08;;;;;;;54.33;26.38;;;-1.40;99.90;;;;;;4992946;28;20134;-71
2022/03/16 04:38:34;;;;;;;59.35;27.02;;;-1.40;99.90;;;;;;4992432;28;20078;-72
2022/03/16 04:41:04;;;;;;;56.75;25.83;;;-1.40;99.90;;;;;;4992567;28;20033;-72
2022/03/16 04:43:30;;;;;;;59.38;27.00;;;-1.40;99.90;;;;;;4992921;28;20026;-71
2022/03/16 04:45:56;;;;;;;58.30;26.73;;;-1.40;99.90;;;;;;4996534;28;20050;-70
2022/03/16 04:48:22;;;;;;;54.58;26.25;;;-1.40;99.90;;;;;;4996506;28;20076;-71
2022/03/16 04:50:47;;;;;;;47.08;23.80;;;-1.40;99.90;;;;;;4996560;28;20026;-72
2022/03/16 04:53:13;;;;;;;46.53;23.10;;;-1.40;99.90;;;;;;4996651;28;20049;-71
2022/03/16 04:55:39;;;;;;;50.30;25.10;;;-1.40;99.90;;;;;;4996510;28;20412;-71
2022/03/16 04:58:05;;;;;;;53.10;25.33;;;-1.40;99.90;;;;;;4996156;28;20033;-71
2022/03/16 05:00:32;;;;;;;54.88;25.30;;;-1.40;99.90;;;;;;4995080;28;20239;-71
2022/03/16 05:02:58;;;;;;;53.78;26.13;;;-1.40;99.90;;;;;;4994988;28;20053;-72
2022/03/16 05:05:23;;;;;;;56.25;27.55;;;-1.40;99.90;;;;;;4996631;28;20124;-72
2022/03/16 05:07:49;;;;;;;53.72;25.38;;;-1.30;99.90;;;;;;4996347;28;20049;-72
2022/03/16 05:10:16;;;;;;;57.92;28.13;;;-1.30;99.90;;;;;;4996428;28;20154;-71
2022/03/16 05:12:43;;;;;;;58.42;26.30;;;-1.30;99.90;;;;;;4996161;28;20039;-71
2022/03/16 05:15:13;;;;;;;63.47;24.55;;;-1.30;99.90;;;;;;4996028;28;20034;-73
2022/03/16 05:17:39;;;;;;;58.13;25.45;;;-1.40;99.90;;;;;;4996095;28;20524;-72
2022/03/16 05:20:06;;;;;;;53.58;24.23;;;-1.40;99.90;;;;;;4995601;28;20030;-72
2022/03/16 05:22:45;;;;;;;55.22;25.48;;;-1.40;99.90;;;;;;4996059;28;20370;-72
2022/03/16 05:25:13;;;;;;;61.17;23.75;;;-1.40;99.90;;;;;;4996025;28;20038;-70
2022/03/16 05:27:39;;;;;;;55.13;25.85;;;-1.40;99.90;;;;;;4995624;28;20035;-71
2022/03/16 05:30:07;;;;;;;79.63;25.83;;;-1.40;99.90;;;;;;4994069;28;20026;-71
2022/03/16 05:32:34;;;;;;;77.93;27.15;;;-1.40;99.90;;;;;;4995774;28;20149;-68
2022/03/16 05:35:00;;;;;;;63.55;26.75;;;-1.40;99.90;;;;;;4993958;28;20037;-69
2022/03/16 05:37:26;;;;;;;58.67;25.45;;;-1.40;99.90;;;;;;4994965;28;20097;-70
2022/03/16 05:39:52;;;;;;;43.67;19.05;;;-1.30;99.90;;;;;;4995469;28;20481;-70
2022/03/16 05:42:19;;;;;;;65.80;28.65;;;-1.00;99.90;;;;;;4995284;28;20026;-69
2022/03/16 05:44:44;;;;;;;61.20;28.15;;;-0.70;99.90;;;;;;4995230;28;20534;-70
2022/03/16 05:47:11;;;;;;;62.33;27.45;;;-0.80;99.90;;;;;;4995391;28;20026;-72
2022/03/16 05:49:37;;;;;;;67.10;27.23;;;-0.90;99.90;;;;;;5013455;28;20540;-73
2022/03/16 05:52:04;;;;;;;69.97;28.42;;;-0.90;99.90;;;;;;5011237;28;20080;-71
2022/03/16 05:54:30;;;;;;;63.45;28.35;;;-1.00;99.90;;;;;;5013477;28;20530;-73
2022/03/16 05:56:56;;;;;;;64.63;28.73;;;-1.00;99.90;;;;;;5014134;28;20022;-75
2022/03/16 05:59:21;;;;;;;75.90;32.50;;;-1.00;99.90;;;;;;5014044;28;20387;-71
2022/03/16 06:01:47;;;;;;;63.25;28.58;;;-1.10;99.90;;;;;;5013899;28;20030;-68
2022/03/16 06:04:13;;;;;;;62.25;28.42;;;-1.10;99.90;;;;;;5014237;28;20041;-68
2022/03/16 06:06:39;;;;;;;67.70;31.52;;;-1.10;99.90;;;;;;5013935;28;20184;-68
2022/03/16 06:09:05;;;;;;;63.53;28.65;;;-1.10;99.90;;;;;;5013305;28;20064;-68
2022/03/16 06:11:31;;;;;;;61.83;28.63;;;-1.10;99.90;;;;;;5011525;28;20026;-68
2022/03/16 06:13:56;;;;;;;63.88;28.00;;;-1.10;99.90;;;;;;5013699;28;20071;-68
2022/03/16 06:16:22;;;;;;;66.05;29.80;;;-1.10;99.90;;;;;;5014240;28;20037;-67
2022/03/16 06:18:48;;;;;;;66.60;31.08;;;-1.10;99.90;;;;;;5014159;28;20030;-69
2022/03/16 06:21:14;;;;;;;62.00;29.98;;;-1.10;99.90;;;;;;5008985;28;20036;-68
2022/03/16 06:23:40;;;;;;;61.22;28.92;;;-1.00;99.90;;;;;;5014305;28;20025;-69
2022/03/16 06:26:06;;;;;;;59.75;27.88;;;-0.90;99.90;;;;;;5014391;28;20072;-68
2022/03/16 06:28:32;;;;;;;60.95;29.17;;;-1.00;99.90;;;;;;5014493;28;20422;-68
2022/03/16 06:30:58;;;;;;;68.15;27.98;;;-1.00;99.90;;;;;;5014422;28;20026;-68
2022/03/16 06:33:23;;;;;;;62.47;28.48;;;-1.00;99.90;;;;;;5012542;28;20049;-68
2022/03/16 06:35:49;;;;;;;63.03;28.98;;;-1.00;99.90;;;;;;5013679;28;20030;-68
2022/03/16 06:38:15;;;;;;;71.43;30.45;;;-1.00;99.90;;;;;;5013525;28;20050;-68
2022/03/16 06:40:41;;;;;;;71.70;30.63;;;-1.00;99.90;;;;;;5013732;28;20440;-68
2022/03/16 06:43:07;;;;;;;62.30;29.33;;;-1.00;99.90;;;;;;5014084;28;20118;-68
2022/03/16 06:45:33;;;;;;;66.90;30.15;;;-0.90;99.90;;;;;;5014143;28;20099;-68
2022/03/16 06:48:01;;;;;;;72.72;29.95;;;-0.90;99.90;;;;;;5013794;28;20433;-68
2022/03/16 06:50:28;;;;;;;71.20;30.10;;;-0.90;99.90;;;;;;5013861;28;20025;-67
2022/03/16 06:52:54;;;;;;;82.55;32.22;;;-0.90;99.90;;;;;;5013896;28;20458;-73
2022/03/16 06:55:20;;;;;;;75.13;32.08;;;-0.90;99.90;;;;;;5013720;28;20100;-72
2022/03/16 06:57:46;;;;;;;76.07;30.65;;;-0.80;99.90;;;;;;5013755;28;20113;-71
2022/03/16 07:00:13;;;;;;;78.15;34.28;;;-0.80;99.90;;;;;;5013670;28;20045;-72
2022/03/16 07:02:52;;;;;;;70.97;31.50;;;-0.80;99.90;;;;;;5013587;28;20079;-73
2022/03/16 07:05:18;;;;;;;65.53;30.25;;;-0.80;99.90;;;;;;5013601;28;20072;-68
2022/03/16 07:07:44;;;;;;;48.80;22.17;;;-0.80;99.90;;;;;;5012594;28;20026;-68
2022/03/16 07:10:10;;;;;;;82.78;34.83;;;-0.50;99.90;;;;;;5013277;28;20036;-69
2022/03/16 07:12:35;;;;;;;65.18;31.98;;;-0.20;99.90;;;;;;5013602;28;20496;-67
2022/03/16 07:15:01;;;;;;;79.57;32.35;;;-0.30;99.90;;;;;;5013428;28;20022;-67
2022/03/16 07:17:27;;;;;;;70.20;31.63;;;-0.40;99.90;;;;;;5012078;28;20132;-74
2022/03/16 07:19:52;;;;;;;67.63;31.17;;;-0.50;99.90;;;;;;5013376;28;20137;-74
2022/03/16 07:22:18;;;;;;;65.78;32.58;;;-0.50;99.90;;;;;;5013311;28;20487;-68
2022/03/16 07:24:44;;;;;;;68.32;32.05;;;-0.50;99.90;;;;;;5013575;28;20022;-68
2022/03/16 07:27:11;;;;;;;63.83;31.38;;;-0.40;99.90;;;;;;5013161;28;20487;-68
2022/03/16 07:29:37;;;;;;;68.30;31.85;;;-0.40;99.90;;;;;;5013336;28;20030;-69
2022/03/16 07:32:04;;;;;;;78.45;36.25;;;-0.40;99.90;;;;;;5013110;28;20022;-70
2022/03/16 07:34:30;;;;;;;70.88;31.63;;;-0.30;99.90;;;;;;5013429;28;20060;-69
2022/03/16 07:36:56;;;;;;;63.80;31.98;;;-0.30;99.90;;;;;;5012835;28;20465;-69
2022/03/16 07:39:21;;;;;;;63.72;31.83;;;-0.20;99.90;;;;;;5012762;28;20053;-70
2022/03/16 07:41:48;;;;;;;67.70;32.92;;;-0.20;99.90;;;;;;5011752;28;20057;-71
2022/03/16 07:44:14;;;;;;;63.63;31.10;;;-0.20;99.90;;;;;;5011674;28;20105;-69
2022/03/16 07:46:41;;;;;;;66.45;31.38;;;-0.10;99.90;;;;;;5011229;28;20022;-70
2022/03/16 07:49:06;;;;;;;62.42;30.52;;;-0.10;99.90;;;;;;5012596;28;20107;-70
2022/03/16 07:51:32;;;;;;;62.15;31.08;;;0.00;99.90;;;;;;5012532;28;20021;-70
2022/03/16 07:53:58;;;;;;;62.70;30.70;;;0.00;99.90;;;;;;5012353;28;20049;-70
2022/03/16 07:56:23;;;;;;;66.13;32.65;;;0.10;99.90;;;;;;5012302;28;20029;-69
2022/03/16 07:58:51;;;;;;;62.35;31.77;;;0.20;99.90;;;;;;5011735;28;20470;-69
2022/03/16 08:01:17;;;;;;;58.50;30.73;;;0.20;99.90;;;;;;5012128;28;20064;-69
2022/03/16 08:03:43;;;;;;;61.00;31.40;;;0.30;99.90;;;;;;5012396;28;20117;-68
2022/03/16 08:06:08;;;;;;;60.20;30.20;;;0.40;99.90;;;;;;5012082;28;20096;-69
2022/03/16 08:08:39;;;;;;;57.35;30.45;;;0.40;99.90;;;;;;5010292;28;20025;-69
2022/03/16 08:11:06;;;;;;;56.08;30.00;;;0.50;99.90;;;;;;5008038;28;20586;-68
2022/03/16 08:13:32;;;;;;;59.10;28.63;;;0.50;99.90;;;;;;5001238;28;20046;-68
2022/03/16 08:15:58;;;;;;;53.30;28.10;;;0.60;99.90;;;;;;4992582;28;20037;-72
2022/03/16 08:18:23;;;;;;;49.50;27.80;;;0.70;99.90;;;;;;5011484;28;20470;-72
2022/03/16 08:20:49;;;;;;;52.90;29.63;;;1.10;99.90;;;;;;5011100;28;20033;-71
2022/03/16 08:23:15;;;;;;;57.95;28.77;;;1.20;99.90;;;;;;5011584;28;20030;-72
2022/03/16 08:25:41;;;;;;;48.20;25.00;;;1.30;99.90;;;;;;5011564;28;20057;-73
2022/03/16 08:28:06;;;;;;;44.60;24.92;;;1.40;99.90;;;;;;5011370;28;20021;-73
2022/03/16 08:30:34;;;;;;;60.50;27.33;;;1.50;99.90;;;;;;5011491;28;20021;-70
2022/03/16 08:33:01;;;;;;;44.00;24.63;;;1.60;99.90;;;;;;5008260;28;20026;-73
2022/03/16 08:35:27;;;;;;;49.13;25.08;;;1.70;99.90;;;;;;5008460;28;20036;-70
2022/03/16 08:37:53;;;;;;;43.28;25.42;;;1.60;99.90;;;;;;5011111;28;20042;-72
2022/03/16 08:40:20;;;;;;;39.20;22.48;;;1.60;99.90;;;;;;5011432;28;20066;-69
2022/03/16 08:42:45;;;;;;;43.72;23.98;;;1.50;99.90;;;;;;5010043;28;20034;-69
2022/03/16 08:45:11;;;;;;;38.05;22.85;;;1.50;99.90;;;;;;5007916;28;20485;-69
2022/03/16 08:47:37;;;;;;;42.88;24.17;;;1.50;99.90;;;;;;5009175;28;20037;-69
2022/03/16 08:50:04;;;;;;;38.08;23.10;;;1.50;99.90;;;;;;5010860;28;20034;-69
2022/03/16 08:52:30;;;;;;;40.53;23.85;;;1.60;99.90;;;;;;5010041;28;20033;-68
2022/03/16 08:54:55;;;;;;;41.50;23.63;;;1.60;99.90;;;;;;5011584;28;20504;-68
2022/03/16 08:57:22;;;;;;;44.67;24.95;;;1.60;99.90;;;;;;5011327;28;20504;-67
2022/03/16 08:59:49;;;;;;;40.75;24.50;;;1.60;99.90;;;;;;5011289;28;20413;-67
2022/03/16 09:02:15;;;;;;;44.13;24.08;;;1.60;99.90;;;;;;5011503;28;20384;-68
2022/03/16 09:04:41;;;;;;;39.95;24.13;;;1.70;99.90;;;;;;5011130;28;20026;-68
2022/03/16 09:07:07;;;;;;;41.88;23.45;;;1.80;99.90;;;;;;5010170;28;20021;-67
2022/03/16 09:09:33;;;;;;;37.70;21.98;;;2.00;99.90;;;;;;5009519;28;20033;-68
2022/03/16 09:11:59;;;;;;;38.05;22.63;;;2.10;99.90;;;;;;5007145;28;20405;-68
2022/03/16 09:14:25;;;;;;;37.08;22.33;;;2.10;99.90;;;;;;5004148;28;20116;-68
2022/03/16 09:16:51;;;;;;;37.05;21.38;;;2.10;99.90;;;;;;5011396;28;20676;-68
2022/03/16 09:19:20;;;;;;;37.58;21.35;;;2.10;99.90;;;;;;5011513;28;20034;-68
2022/03/16 09:21:49;;;;;;;34.58;20.90;;;2.20;99.90;;;;;;5010163;28;20472;-66
2022/03/16 09:24:16;;;;;;;34.80;20.83;;;2.30;99.90;;;;;;5011120;28;20029;-68
2022/03/16 09:26:42;;;;;;;33.83;20.40;;;2.90;99.90;;;;;;5011576;28;20034;-66
2022/03/16 09:29:09;;;;;;;29.77;18.42;;;2.80;99.90;;;;;;5010314;28;20022;-67
2022/03/16 09:31:40;;;;;;;25.20;16.08;;;3.30;99.90;;;;;;5014311;28;20030;-69
2022/03/16 09:34:07;;;;;;;28.00;17.38;;;3.80;99.90;;;;;;5015041;28;20033;-67
2022/03/16 09:36:34;;;;;;;28.13;17.20;;;3.80;99.90;;;;;;5015504;28;20036;-68
2022/03/16 09:39:00;;;;;;;27.52;17.42;;;3.50;99.90;;;;;;5014869;28;20095;-69
2022/03/16 09:41:27;;;;;;;30.90;17.13;;;3.30;99.90;;;;;;5014659;28;20029;-68
2022/03/16 09:43:53;;;;;;;32.88;18.33;;;3.20;99.90;;;;;;5008681;28;20030;-68
2022/03/16 09:46:27;;;;;;;28.83;17.98;;;3.20;99.90;;;;;;4998155;28;20410;-70
2022/03/16 09:48:54;;;;;;;30.25;17.70;;;3.20;99.90;;;;;;4996381;28;20022;-68
2022/03/16 09:51:19;;;;;;;26.83;16.38;;;3.20;99.90;;;;;;5003821;28;20038;-68
2022/03/16 09:53:46;;;;;;;27.10;17.58;;;3.20;99.90;;;;;;5001976;28;20038;-67
2022/03/16 09:56:12;;;;;;;29.45;18.70;;;3.20;99.90;;;;;;5011156;28;20546;-67
2022/03/16 09:58:38;;;;;;;29.08;17.67;;;3.30;99.90;;;;;;5012095;28;20112;-68
2022/03/16 10:01:07;;;;;;;29.27;17.02;;;3.30;99.90;;;;;;5010687;28;20029;-69
2022/03/16 10:03:35;;;;;;;29.55;17.25;;;3.40;99.90;;;;;;5014684;28;20026;-68
2022/03/16 10:06:06;;;;;;;29.40;17.17;;;3.40;99.90;;;;;;5014508;28;20053;-68
2022/03/16 10:08:34;;;;;;;27.23;17.27;;;3.40;99.90;;;;;;5014466;28;20393;-68
2022/03/16 10:14:17;;;;;;;27.63;14.93;;;3.60;99.90;;;;;;5014448;28;20103;-69
2022/03/16 10:19:51;;;;;;;25.13;15.70;;;3.80;99.90;;;;;;5014589;28;20033;-69
2022/03/16 10:22:30;;;;;;;24.33;15.98;;;3.90;99.90;;;;;;5012851;28;20061;-68
2022/03/16 10:25:06;;;;;;;26.40;16.63;;;3.90;99.90;;;;;;5013717;28;20087;-70
2022/03/16 10:27:38;;;;;;;27.17;16.10;;;4.00;99.90;;;;;;5013427;28;20065;-69
2022/03/16 10:30:08;;;;;;;29.13;15.98;;;4.10;99.90;;;;;;5010763;28;20034;-70
2022/03/16 10:32:35;;;;;;;24.52;15.82;;;4.10;99.90;;;;;;5012605;28;20519;-70
2022/03/16 10:35:07;;;;;;;28.42;16.33;;;4.10;99.90;;;;;;5013774;28;20116;-70
2022/03/16 10:37:39;;;;;;;31.75;16.38;;;4.20;99.90;;;;;;5012479;28;20069;-70
2022/03/16 10:40:15;;;;;;;26.50;17.15;;;4.30;99.90;;;;;;5014051;28;20048;-71
2022/03/16 10:48:21;;;;;;;30.98;16.27;;;4.50;99.90;;;;;;5013528;28;20041;-71
2022/03/16 10:50:49;;;;;;;29.83;16.02;;;4.60;99.90;;;;;;5013790;28;20504;-72
2022/03/16 10:53:17;;;;;;;26.30;15.35;;;4.90;99.90;;;;;;5013455;28;20057;-72
2022/03/16 10:55:44;;;;;;;22.25;15.40;;;5.60;99.90;;;;;;5013806;28;20026;-72
2022/03/16 10:58:14;;;;;;;30.02;16.08;;;6.30;99.90;;;;;;5013740;28;20053;-72
2022/03/16 11:00:41;;;;;;;25.77;16.35;;;5.90;99.90;;;;;;5013492;28;20034;-72
2022/03/16 11:03:15;;;;;;;25.48;16.25;;;5.60;99.90;;;;;;5013568;28;20100;-72
2022/03/16 11:05:42;;;;;;;30.70;16.95;;;5.40;99.90;;;;;;5013838;28;20033;-72
2022/03/16 11:08:09;;;;;;;36.47;18.73;;;5.30;99.90;;;;;;5013786;28;20113;-72
2022/03/16 11:10:42;;;;;;;26.63;16.90;;;5.30;99.90;;;;;;5013317;28;20543;-72
2022/03/16 11:15:57;;;;;;;32.78;15.88;;;5.30;99.90;;;;;;5013627;28;20034;-72
2022/03/16 11:18:26;;;;;;;30.67;17.35;;;5.30;99.90;;;;;;5013435;28;20030;-72
2022/03/16 11:21:01;;;;;;;27.33;16.67;;;5.30;99.90;;;;;;5013298;28;20168;-72
2022/03/16 11:26:34;;;;;;;29.45;17.52;;;5.30;99.90;;;;;;5013189;28;20386;-72
2022/03/16 11:29:15;;;;;;;29.58;17.13;;;5.30;99.90;;;;;;5013296;28;20076;-72
2022/03/16 11:31:42;;;;;;;26.02;15.77;;;5.40;99.90;;;;;;5013407;28;20117;-72
2022/03/16 11:34:10;;;;;;;28.13;17.20;;;5.40;99.90;;;;;;5013002;28;20034;-72
2022/03/16 11:36:41;;;;;;;28.80;15.93;;;5.40;99.90;;;;;;5012727;28;20465;-72
2022/03/16 11:39:14;;;;;;;;;;;5.40;99.90;;;;;;5013080;28;20054;-72
2022/03/16 11:41:51;;;;;;;29.92;17.55;;;5.40;99.90;;;;;;5012858;28;19912;-72
2022/03/16 11:44:26;;;;;;;31.27;16.27;;;5.40;99.90;;;;;;5012977;28;20065;-72
2022/03/16 11:46:52;;;;;;;28.88;15.30;;;5.40;99.90;;;;;;5013477;28;20036;-72
2022/03/16 11:49:30;;;;;;;27.48;16.20;;;5.50;99.90;;;;;;5012615;28;20022;-72
2022/03/16 11:52:00;;;;;;;27.33;15.55;;;5.50;99.90;;;;;;5012974;28;20121;-72
2022/03/16 11:54:45;;;;;;;21.27;14.15;;;5.50;99.90;;;;;;5012455;28;20370;-72
2022/03/16 11:57:12;;;;;;;26.60;15.25;;;5.60;99.90;;;;;;5012606;28;20101;-72
2022/03/16 11:59:44;;;;;;;27.38;15.13;;;5.60;99.90;;;;;;5012894;28;20116;-72
2022/03/16 12:02:16;;;;;;;28.95;14.50;;;5.60;99.90;;;;;;5013153;28;20033;-72
2022/03/16 12:04:44;;;;;;;33.72;17.05;;;5.60;99.90;;;;;;5012479;28;20026;-72
2022/03/16 12:07:16;;;;;;;25.30;15.10;;;5.60;99.90;;;;;;5012672;28;20034;-72
2022/03/16 12:09:47;;;;;;;38.25;15.45;;;5.60;99.90;;;;;;5012670;28;20030;-72
2022/03/16 12:15:11;;;;;;;37.10;16.02;;;5.60;99.90;;;;;;5012282;28;20048;-72
2022/03/16 12:17:52;;;;;;;28.58;15.63;;;5.60;99.90;;;;;;4994078;28;20022;-72
2022/03/16 12:20:21;;;;;;;25.73;15.35;;;5.60;99.90;;;;;;4992682;28;20023;-72
2022/03/16 12:22:49;;;;;;;24.30;13.88;;;5.60;99.90;;;;;;4992580;28;20022;-72
2022/03/16 12:25:27;;;;;;;22.77;13.57;;;5.60;99.90;;;;;;4992363;28;20385;-72
2022/03/16 12:30:44;;;;;;;29.08;14.35;;;5.90;99.90;;;;;;5012394;28;20041;-67
2022/03/16 12:33:22;;;;;;;23.30;14.18;;;5.80;99.90;;;;;;5011940;28;20472;-69
2022/03/16 12:36:15;;;;;;;25.65;14.60;;;5.90;99.90;;;;;;5012032;28;20037;-67
2022/03/16 12:38:53;;;;;;;22.15;13.52;;;6.10;99.90;;;;;;5009009;28;20548;-67
2022/03/16 12:44:06;;;;;;;23.15;13.85;;;5.90;99.90;;;;;;5008438;28;20037;-67
2022/03/16 12:46:47;;;;;;;21.25;13.27;;;5.90;99.90;;;;;;4994297;28;20022;-67
2022/03/16 12:49:16;;;;;;;28.60;13.73;;;5.90;99.90;;;;;;4991619;28;20383;-68
2022/03/16 12:51:49;;;;;;;23.98;14.60;;;5.90;99.90;;;;;;5008955;28;20028;-68
2022/03/16 12:54:22;;;;;;;19.70;13.35;;;5.90;99.90;;;;;;5011577;28;20038;-68
2022/03/16 12:56:50;;;;;;;24.35;13.40;;;5.90;99.90;;;;;;5012051;28;20052;-68
2022/03/16 12:59:29;;;;;;;26.75;13.73;;;5.90;99.90;;;;;;5011498;28;20026;-68
2022/03/16 13:02:01;;;;;;;23.13;14.30;;;5.90;99.90;;;;;;5011289;28;20022;-68
2022/03/16 13:04:27;;;;;;;25.40;13.23;;;6.00;99.90;;;;;;5010924;28;20018;-67
2022/03/16 13:06:57;;;;;;;23.98;14.57;;;6.00;99.90;;;;;;5015324;28;20449;-67
2022/03/16 13:09:28;;;;;;;24.33;14.80;;;6.00;99.90;;;;;;5015206;28;20028;-67
2022/03/16 13:12:00;;;;;;;;;;;6.00;99.90;;;;;;5015937;28;20034;-72
2022/03/16 13:14:29;;;;;;;26.20;13.70;;;6.00;99.90;;;;;;5015508;28;19920;-70
2022/03/16 13:16:55;;;;;;;23.70;13.43;;;6.20;99.90;;;;;;5015737;28;20030;-69
2022/03/16 13:19:32;;;;;;;26.98;14.68;;;6.20;99.90;;;;;;5015900;28;20026;-69
2022/03/16 13:22:05;;;;;;;22.30;13.52;;;6.20;99.90;;;;;;5015955;28;20030;-69
2022/03/16 13:24:39;;;;;;;22.98;13.73;;;6.30;99.90;;;;;;5015749;28;20034;-70
2022/03/16 13:27:10;;;;;;;23.77;12.60;;;6.30;99.90;;;;;;5015755;28;20041;-70
2022/03/16 13:29:38;;;;;;;23.38;12.80;;;6.30;99.90;;;;;;5015722;28;20034;-70
2022/03/16 13:32:06;;;;;;;24.15;12.23;;;6.20;99.90;;;;;;5015257;28;20054;-70
2022/03/16 13:34:40;;;;;;;27.30;14.30;;;6.20;99.90;;;;;;5015557;28;20038;-71
2022/03/16 13:37:24;;;;;;;34.10;15.23;;;6.20;99.90;;;;;;5015011;28;20026;-70
2022/03/16 13:40:11;;;;;;;21.45;11.88;;;6.20;99.90;;;;;;5015478;28;20117;-70
2022/03/16 13:42:39;;;;;;;31.42;13.00;;;6.20;99.90;;;;;;5015052;28;20576;-70
2022/03/16 13:45:10;;;;;;;20.30;12.90;;;6.20;99.90;;;;;;5015044;28;20486;-70
2022/03/16 13:47:36;;;;;;;20.08;12.68;;;6.20;99.90;;;;;;5015192;28;20030;-70
2022/03/16 13:50:02;;;;;;;24.45;13.32;;;6.20;99.90;;;;;;5015208;28;20080;-70
2022/03/16 13:52:40;;;;;;;23.17;12.73;;;6.30;99.90;;;;;;5015123;28;20393;-70
2022/03/16 13:55:14;;;;;;;24.45;13.20;;;6.20;99.90;;;;;;5015112;28;20034;-70
2022/03/16 13:57:46;;;;;;;19.58;11.60;;;6.30;99.90;;;;;;5015080;28;20018;-70
2022/03/16 14:00:14;;;;;;;22.92;12.88;;;7.40;99.90;;;;;;5014837;28;20026;-71
2022/03/16 14:02:41;;;;;;;21.80;12.45;;;7.40;99.90;;;;;;5015065;28;20424;-72
2022/03/16 14:05:19;;;;;;;24.77;14.27;;;7.10;99.90;;;;;;5014833;28;20100;-73
2022/03/16 14:07:50;;;;;;;22.17;13.95;;;6.90;99.90;;;;;;5014684;28;20485;-73